createdAt,value
2019-03-01T00:01:19.828Z,63.33
2019-03-01T00:03:46.593Z,63.60
2019-03-01T00:06:13.588Z,70.63
2019-03-01T00:08:40.890Z,57.37
2019-03-01T00:11:07.795Z,79.73
2019-03-01T00:13:34.565Z,62.30
2019-03-01T00:16:01.762Z,58.07
2019-03-01T00:18:28.884Z,62.73
2019-03-01T00:20:56.004Z,64.33
2019-03-01T00:23:22.746Z,72.93
2019-03-01T00:25:50.067Z,61.87
2019-03-01T00:28:16.928Z,67.83
2019-03-01T00:30:43.781Z,68.30
2019-03-01T00:33:10.512Z,90.77
2019-03-01T00:35:37.257Z,66.80
2019-03-01T00:38:04.101Z,57.63
2019-03-01T00:40:30.939Z,75.80
2019-03-01T00:42:57.634Z,67.73
2019-03-01T00:45:25.270Z,75.83
2019-03-01T00:47:51.987Z,68.83
2019-03-01T00:50:19.334Z,83.10
2019-03-01T00:52:46.107Z,70.97
2019-03-01T00:55:13.107Z,89.53
2019-03-01T00:57:39.850Z,79.87
2019-03-01T01:00:07.106Z,87.13
2019-03-01T01:02:33.850Z,89.00
2019-03-01T01:05:00.691Z,74.70
2019-03-01T01:07:27.415Z,89.57
2019-03-01T01:09:55.154Z,89.17
2019-03-01T01:12:21.869Z,81.00
2019-03-01T01:14:48.817Z,76.20
2019-03-01T01:17:15.538Z,87.90
2019-03-01T01:19:43.595Z,88.80
2019-03-01T01:22:10.320Z,81.27
2019-03-01T01:24:37.064Z,87.13
2019-03-01T01:27:04.414Z,86.43
2019-03-01T01:29:31.253Z,63.67
2019-03-01T01:31:57.985Z,83.90
2019-03-01T01:34:24.730Z,88.03
2019-03-01T01:36:51.575Z,96.73
2019-03-01T01:39:18.328Z,91.93
2019-03-01T01:41:45.160Z,99.77
2019-03-01T01:44:12.100Z,88.83
2019-03-01T01:46:39.139Z,85.03
2019-03-01T01:49:06.003Z,90.10
2019-03-01T01:51:33.143Z,83.73
2019-03-01T01:53:59.980Z,77.10
2019-03-01T01:56:27.219Z,90.63
2019-03-01T01:58:53.859Z,71.27
2019-03-01T02:01:21.747Z,86.43
2019-03-01T02:03:48.460Z,89.90
2019-03-01T02:06:15.916Z,90.10
2019-03-01T02:08:42.569Z,78.57
2019-03-01T02:11:09.607Z,91.93
2019-03-01T02:13:36.343Z,79.30
2019-03-01T02:16:03.143Z,84.03
2019-03-01T02:18:30.554Z,70.63
2019-03-01T02:20:57.279Z,77.10
2019-03-01T02:23:24.779Z,72.10
2019-03-01T02:25:51.583Z,88.20
2019-03-01T02:28:18.417Z,81.90
2019-03-01T02:30:45.261Z,76.07
2019-03-01T02:33:12.633Z,75.07
2019-03-01T02:35:39.362Z,79.17
2019-03-01T02:38:06.526Z,72.50
2019-03-01T02:40:33.369Z,79.97
2019-03-01T02:43:00.578Z,87.20
2019-03-01T02:45:27.356Z,79.50
2019-03-01T02:47:55.310Z,101.80
2019-03-01T02:50:22.168Z,75.97
2019-03-01T02:52:49.396Z,68.40
2019-03-01T02:55:17.644Z,98.77
2019-03-01T02:57:44.367Z,92.97
2019-03-01T03:00:11.147Z,64.20
2019-03-01T03:02:38.303Z,107.77
2019-03-01T03:05:05.160Z,77.10
2019-03-01T03:07:32.605Z,72.70
2019-03-01T03:09:59.965Z,79.10
2019-03-01T03:12:27.772Z,86.27
2019-03-01T03:14:54.563Z,78.53
2019-03-01T03:17:22.268Z,84.87
2019-03-01T03:19:49.054Z,68.17
2019-03-01T03:22:15.795Z,88.07
2019-03-01T03:24:42.655Z,97.13
2019-03-01T03:27:09.434Z,85.13
2019-03-01T03:29:36.117Z,77.43
2019-03-01T03:32:02.980Z,98.10
2019-03-01T03:34:29.713Z,75.50
2019-03-01T03:36:56.436Z,79.03
2019-03-01T03:39:23.179Z,85.23
2019-03-01T03:41:49.925Z,102.23
2019-03-01T03:44:16.765Z,89.07
2019-03-01T03:46:43.498Z,87.50
2019-03-01T03:49:10.199Z,79.47
2019-03-01T03:51:36.985Z,72.57
2019-03-01T03:54:03.711Z,90.03
2019-03-01T03:56:30.555Z,93.27
2019-03-01T03:58:57.287Z,76.50
2019-03-01T04:01:24.033Z,105.17
2019-03-01T04:03:50.937Z,82.27
2019-03-01T04:06:17.732Z,92.83
2019-03-01T04:08:44.579Z,89.47
2019-03-01T04:11:11.515Z,99.93
2019-03-01T04:13:38.256Z,98.80
2019-03-01T04:16:04.976Z,84.73
2019-03-01T04:18:31.727Z,82.63
2019-03-01T04:20:59.081Z,106.73
2019-03-01T04:23:25.808Z,98.00
2019-03-01T04:25:52.550Z,94.53
2019-03-01T04:28:19.295Z,117.87
2019-03-01T04:30:46.038Z,94.30
2019-03-01T04:33:12.874Z,105.70
2019-03-01T04:35:39.571Z,82.07
2019-03-01T04:38:06.352Z,90.37
2019-03-01T04:40:33.094Z,101.93
2019-03-01T04:42:59.790Z,95.93
2019-03-01T04:45:26.676Z,74.40
2019-03-01T04:47:53.408Z,95.97
2019-03-01T04:50:20.143Z,95.10
2019-03-01T04:52:46.831Z,96.07
2019-03-01T04:55:13.839Z,106.13
2019-03-01T04:57:40.687Z,89.50
2019-03-01T05:00:07.525Z,109.43
2019-03-01T05:02:34.362Z,120.50
2019-03-01T05:05:01.054Z,122.87
2019-03-01T05:07:27.839Z,101.13
2019-03-01T05:09:55.614Z,94.03
2019-03-01T05:12:22.493Z,93.33
2019-03-01T05:14:49.283Z,101.63
2019-03-01T05:17:16.132Z,128.83
2019-03-01T05:19:43.063Z,89.07
2019-03-01T05:22:10.155Z,108.70
2019-03-01T05:24:36.963Z,114.30
2019-03-01T05:27:03.805Z,97.77
2019-03-01T05:29:30.511Z,126.07
2019-03-01T05:31:57.375Z,95.33
2019-03-01T05:34:24.228Z,99.63
2019-03-01T05:36:50.959Z,110.87
2019-03-01T05:39:17.713Z,116.20
2019-03-01T05:41:44.550Z,106.10
2019-03-01T05:44:11.288Z,102.87
2019-03-01T05:46:38.128Z,84.40
2019-03-01T05:49:04.970Z,86.07
2019-03-01T05:51:31.715Z,93.10
2019-03-01T05:53:58.454Z,108.30
2019-03-01T05:56:25.216Z,85.70
2019-03-01T05:58:52.325Z,112.70
2019-03-01T06:01:19.068Z,97.57
2019-03-01T06:03:45.817Z,88.87
2019-03-01T06:06:12.659Z,90.17
2019-03-01T06:08:39.502Z,88.30
2019-03-01T06:11:06.347Z,94.13
2019-03-01T06:13:33.076Z,100.10
2019-03-01T06:15:59.814Z,82.63
2019-03-01T06:18:26.552Z,106.50
2019-03-01T06:20:53.291Z,78.73
2019-03-01T06:23:20.144Z,99.10
2019-03-01T06:25:46.986Z,81.00
2019-03-01T06:28:13.712Z,102.67
2019-03-01T06:30:40.515Z,96.17
2019-03-01T06:33:07.200Z,84.63
2019-03-01T06:35:34.029Z,90.87
2019-03-01T06:38:00.772Z,82.60
2019-03-01T06:40:27.519Z,91.73
2019-03-01T06:42:54.246Z,80.30
2019-03-01T06:45:21.102Z,83.97
2019-03-01T06:47:47.929Z,91.37
2019-03-01T06:50:14.570Z,88.40
2019-03-01T06:52:41.322Z,88.33
2019-03-01T06:55:08.159Z,84.67
2019-03-01T06:57:34.909Z,75.60
2019-03-01T07:00:01.721Z,97.97
2019-03-01T07:02:28.475Z,109.40
2019-03-01T07:04:55.220Z,94.73
2019-03-01T07:07:21.935Z,96.90
2019-03-01T07:09:48.689Z,93.47
2019-03-01T07:12:15.428Z,101.50
2019-03-01T07:14:42.177Z,99.73
2019-03-01T07:17:08.915Z,94.80
2019-03-01T07:19:35.673Z,83.47
2019-03-01T07:22:02.347Z,87.87
2019-03-01T07:24:29.437Z,74.20
2019-03-01T07:26:56.169Z,77.07
2019-03-01T07:29:22.914Z,82.83
2019-03-01T07:31:49.647Z,81.30
2019-03-01T07:34:16.396Z,105.67
2019-03-01T07:36:43.240Z,79.70
2019-03-01T07:39:09.946Z,88.07
2019-03-01T07:41:36.638Z,72.27
2019-03-01T07:44:03.305Z,79.10
2019-03-01T07:46:30.085Z,74.77
2019-03-01T07:48:56.825Z,81.50
2019-03-01T07:51:23.567Z,77.70
2019-03-01T07:53:50.308Z,77.83
2019-03-01T07:56:17.243Z,91.53
2019-03-01T07:58:43.964Z,76.90
2019-03-01T08:01:10.843Z,101.40
2019-03-01T08:03:37.779Z,84.30
2019-03-01T08:06:04.469Z,76.40
2019-03-01T08:08:31.262Z,89.57
2019-03-01T08:11:00.029Z,82.87
2019-03-01T08:13:26.945Z,95.63
2019-03-01T08:15:53.734Z,93.23
2019-03-01T08:18:20.582Z,88.07
2019-03-01T08:20:47.305Z,96.77
2019-03-01T08:23:14.504Z,97.80
2019-03-01T08:25:41.612Z,79.97
2019-03-01T08:28:08.933Z,92.27
2019-03-01T08:30:35.791Z,124.73
2019-03-01T08:33:06.618Z,71.80
2019-03-01T08:35:32.262Z,89.80
2019-03-01T08:37:59.412Z,85.63
2019-03-01T08:40:26.459Z,86.60
2019-03-01T08:42:53.177Z,87.30
2019-03-01T08:45:19.935Z,95.87
2019-03-01T08:47:48.674Z,90.20
2019-03-01T08:50:15.215Z,78.00
2019-03-01T08:52:41.910Z,97.27
2019-03-01T08:55:08.735Z,92.93
2019-03-01T08:57:43.991Z,84.43
2019-03-01T09:00:03.949Z,88.13
2019-03-01T09:02:30.787Z,100.63
2019-03-01T09:04:57.546Z,90.87
2019-03-01T09:07:27.193Z,102.27
2019-03-01T09:09:53.701Z,85.17
2019-03-01T09:12:21.022Z,112.43
2019-03-01T09:14:47.796Z,107.80
2019-03-01T09:17:14.601Z,95.63
2019-03-01T09:19:41.439Z,80.97
2019-03-01T09:22:08.129Z,90.07
2019-03-01T09:24:34.814Z,83.83
2019-03-01T09:27:01.670Z,90.07
2019-03-01T09:29:28.496Z,85.93
2019-03-01T09:31:57.633Z,79.30
2019-03-01T09:34:23.832Z,90.37
2019-03-01T09:36:51.507Z,99.20
2019-03-01T09:39:19.306Z,98.20
2019-03-01T09:41:46.161Z,86.80
2019-03-01T09:44:12.922Z,104.10
2019-03-01T09:46:39.566Z,79.45
2019-03-01T09:49:06.305Z,69.15
2019-03-01T09:51:33.139Z,71.12
2019-03-01T09:54:00.108Z,77.22
2019-03-01T09:56:26.878Z,70.35
2019-03-01T09:58:53.968Z,71.80
2019-03-01T10:01:20.941Z,93.20
2019-03-01T10:03:47.864Z,75.78
2019-03-01T10:06:14.813Z,84.97
2019-03-01T10:08:41.545Z,83.80
2019-03-01T10:11:08.218Z,84.83
2019-03-01T10:16:01.759Z,74.03
2019-03-01T10:18:28.399Z,71.63
2019-03-01T10:20:55.250Z,76.42
2019-03-01T10:23:22.095Z,88.17
2019-03-01T10:25:49.027Z,77.22
2019-03-01T10:28:15.881Z,91.50
2019-03-01T10:30:42.615Z,92.30
2019-03-01T10:33:09.461Z,82.80
2019-03-01T10:35:36.186Z,73.22
2019-03-01T10:38:02.833Z,64.77
2019-03-01T10:40:29.677Z,63.80
2019-03-01T10:42:56.403Z,58.95
2019-03-01T10:45:23.262Z,59.98
2019-03-01T10:47:50.094Z,53.28
2019-03-01T10:50:16.851Z,52.95
2019-03-01T10:52:43.602Z,57.65
2019-03-01T10:55:10.319Z,54.35
2019-03-01T10:57:37.025Z,61.33
2019-03-01T11:00:03.827Z,66.87
2019-03-01T11:02:30.531Z,50.63
2019-03-01T11:04:57.362Z,59.05
2019-03-01T11:07:24.009Z,63.98
2019-03-01T11:09:50.959Z,66.22
2019-03-01T11:12:17.794Z,73.07
2019-03-01T11:14:44.538Z,63.38
2019-03-01T11:17:11.373Z,70.83
2019-03-01T11:19:38.114Z,66.27
2019-03-01T11:22:04.965Z,65.13
2019-03-01T11:24:31.666Z,78.03
2019-03-01T11:26:58.429Z,75.57
2019-03-01T11:29:25.279Z,67.80
2019-03-01T11:31:52.005Z,80.73
2019-03-01T11:34:18.760Z,74.43
2019-03-01T11:36:45.603Z,69.00
2019-03-01T11:39:12.331Z,68.83
2019-03-01T11:41:39.180Z,60.30
2019-03-01T11:44:05.909Z,61.67
2019-03-01T11:46:32.665Z,65.00
2019-03-01T11:48:59.401Z,59.13
2019-03-01T11:51:27.776Z,65.70
2019-03-01T11:53:54.827Z,63.47
2019-03-01T11:56:21.672Z,69.17
2019-03-01T11:58:48.432Z,67.77
2019-03-01T12:01:17.433Z,64.57
2019-03-01T12:03:43.531Z,72.13
2019-03-01T12:06:10.297Z,59.73
2019-03-01T12:08:37.110Z,63.03
2019-03-01T12:11:03.952Z,56.50
2019-03-01T12:13:30.785Z,77.33
2019-03-01T12:15:57.628Z,72.87
2019-03-01T12:18:24.459Z,68.77
2019-03-01T12:20:51.196Z,59.77
2019-03-01T12:23:17.946Z,71.90
2019-03-01T12:25:44.681Z,60.53
2019-03-01T12:28:11.526Z,79.57
2019-03-01T12:30:38.369Z,65.70
2019-03-01T12:33:05.117Z,69.20
2019-03-01T12:35:31.947Z,78.17
2019-03-01T12:37:58.810Z,77.13
2019-03-01T12:40:25.531Z,75.30
2019-03-01T12:42:52.378Z,81.27
2019-03-01T12:45:19.132Z,85.23
2019-03-01T12:47:45.969Z,78.67
2019-03-01T12:50:12.839Z,85.87
2019-03-01T12:52:39.655Z,74.60
2019-03-01T12:55:06.495Z,71.47
2019-03-01T12:57:33.431Z,74.63
2019-03-01T13:00:00.359Z,86.93
2019-03-01T13:02:27.571Z,79.70
2019-03-01T13:04:54.561Z,73.30
2019-03-01T13:07:21.611Z,78.93
2019-03-01T13:09:48.472Z,76.70
2019-03-01T13:12:15.175Z,80.77
2019-03-01T13:14:41.930Z,77.00
2019-03-01T13:17:08.780Z,79.43
2019-03-01T13:19:35.682Z,95.17
2019-03-01T13:22:02.470Z,84.63
2019-03-01T13:24:29.227Z,73.43
2019-03-01T13:26:56.118Z,88.33
2019-03-01T13:29:23.303Z,100.30
2019-03-01T13:31:50.363Z,76.43
2019-03-01T13:34:17.179Z,98.87
2019-03-01T13:36:44.024Z,84.77
2019-03-01T13:39:11.284Z,84.57
2019-03-01T13:41:38.332Z,105.97
2019-03-01T13:44:05.584Z,98.13
2019-03-01T13:46:33.441Z,86.80
2019-03-01T13:49:00.409Z,100.77
2019-03-01T13:51:27.224Z,89.57
2019-03-01T13:53:54.000Z,73.30
2019-03-01T13:56:20.907Z,103.63
2019-03-01T13:58:47.742Z,80.23
2019-03-01T14:01:14.617Z,85.17
2019-03-01T14:03:41.454Z,78.13
2019-03-01T14:06:08.155Z,95.33
2019-03-01T14:08:35.002Z,90.83
2019-03-01T14:11:02.077Z,97.73
2019-03-01T14:13:29.388Z,103.20
2019-03-01T14:15:56.160Z,102.63
2019-03-01T14:18:22.887Z,104.10
2019-03-01T14:20:49.755Z,119.37
2019-03-01T14:23:16.518Z,118.90
2019-03-01T14:25:43.376Z,95.83
2019-03-01T14:28:10.161Z,119.53
2019-03-01T14:30:37.025Z,90.30
2019-03-01T14:33:03.859Z,95.10
2019-03-01T14:35:30.693Z,100.70
2019-03-01T14:37:57.425Z,95.93
2019-03-01T14:40:24.154Z,102.50
2019-03-01T14:42:50.943Z,102.23
2019-03-01T14:45:17.744Z,106.03
2019-03-01T14:47:44.592Z,111.57
2019-03-01T14:50:11.936Z,116.07
2019-03-01T14:52:38.601Z,103.77
2019-03-01T14:55:05.331Z,119.53
2019-03-01T14:57:32.763Z,130.23
2019-03-01T14:59:59.490Z,111.03
2019-03-01T15:02:26.235Z,109.73
2019-03-01T15:04:54.352Z,98.67
2019-03-01T15:07:21.449Z,113.07
2019-03-01T15:09:48.599Z,108.77
2019-03-01T15:12:19.638Z,117.90
2019-03-01T15:14:49.575Z,108.33
2019-03-01T15:17:12.197Z,121.43
2019-03-01T15:19:41.362Z,105.27
2019-03-01T15:22:09.683Z,110.80
2019-03-01T15:24:36.347Z,114.90
2019-03-01T15:27:03.989Z,108.47
2019-03-01T15:29:32.938Z,112.30
2019-03-01T15:31:59.831Z,118.17
2019-03-01T15:34:26.801Z,135.30
2019-03-01T15:36:55.959Z,125.13
2019-03-01T15:39:21.894Z,120.73
2019-03-01T15:41:48.704Z,134.80
2019-03-01T15:44:15.655Z,115.10
2019-03-01T15:46:42.484Z,115.10
2019-03-01T15:49:11.757Z,122.50
2019-03-01T15:51:38.170Z,117.40
2019-03-01T15:54:05.731Z,117.90
2019-03-01T15:56:32.521Z,108.43
2019-03-01T15:58:59.453Z,122.23
2019-03-01T16:01:26.299Z,118.47
2019-03-01T16:03:54.080Z,109.80
2019-03-01T16:06:22.379Z,130.70
2019-03-01T16:08:49.189Z,146.30
2019-03-01T16:11:16.022Z,125.77
2019-03-01T16:13:47.946Z,152.40
2019-03-01T16:16:13.817Z,139.77
2019-03-01T16:18:39.913Z,120.93
2019-03-01T16:21:06.769Z,139.07
2019-03-01T16:23:33.509Z,114.73
2019-03-01T16:26:00.232Z,107.13
2019-03-01T16:28:27.422Z,119.30
2019-03-01T16:30:56.830Z,105.03
2019-03-01T16:33:25.947Z,108.33
2019-03-01T16:35:52.567Z,114.10
2019-03-01T16:38:19.321Z,127.97
2019-03-01T16:40:46.107Z,106.47
2019-03-01T16:43:12.958Z,102.53
2019-03-01T16:45:39.833Z,126.00
2019-03-01T16:48:06.642Z,97.00
2019-03-01T16:50:33.486Z,118.70
2019-03-01T16:53:04.076Z,127.83
2019-03-01T16:55:28.889Z,101.60
2019-03-01T16:58:06.124Z,110.13
2019-03-01T17:00:24.129Z,125.27
2019-03-01T17:02:50.831Z,106.80
2019-03-01T17:05:17.608Z,108.97
2019-03-01T17:07:44.334Z,112.17
2019-03-01T17:10:11.052Z,133.73
2019-03-01T17:12:37.933Z,119.47
2019-03-01T17:15:04.765Z,122.60
2019-03-01T17:17:33.129Z,126.00
2019-03-01T17:20:02.302Z,108.50
2019-03-01T17:22:30.246Z,114.23
2019-03-01T17:24:58.520Z,112.77
2019-03-01T17:27:26.629Z,118.73
2019-03-01T17:29:54.716Z,137.80
2019-03-01T17:32:22.543Z,131.17
2019-03-01T17:34:52.067Z,123.13
2019-03-01T17:37:20.004Z,121.83
2019-03-01T17:39:48.272Z,125.63
2019-03-01T17:42:17.414Z,119.87
2019-03-01T17:44:45.625Z,96.50
2019-03-01T17:47:13.444Z,81.30
2019-03-01T17:49:41.638Z,71.47
2019-03-01T17:52:09.564Z,64.13
2019-03-01T17:54:37.448Z,58.97
2019-03-01T17:57:05.221Z,60.37
2019-03-01T17:59:33.300Z,49.47
2019-03-01T18:02:01.433Z,59.33
2019-03-01T18:04:29.313Z,58.70
2019-03-01T18:06:56.915Z,46.03
2019-03-01T18:11:56.756Z,51.87
2019-03-01T18:14:24.757Z,62.07
2019-03-01T18:16:52.871Z,51.07
2019-03-01T18:19:23.689Z,76.83
2019-03-01T18:21:51.117Z,64.47
2019-03-01T18:24:19.410Z,83.93
2019-03-01T18:26:47.366Z,83.67
2019-03-01T18:29:15.147Z,79.17
2019-03-01T18:31:42.990Z,57.87
2019-03-01T18:34:09.885Z,63.20
2019-03-01T18:36:36.613Z,74.53
2019-03-01T18:39:03.691Z,67.80
2019-03-01T18:41:31.738Z,67.17
2019-03-01T18:43:58.443Z,67.03
2019-03-01T18:46:25.331Z,73.43
2019-03-01T18:48:52.160Z,64.03
2019-03-01T18:51:19.302Z,67.80
2019-03-01T18:53:46.153Z,60.10
2019-03-01T18:56:12.993Z,68.70
2019-03-01T18:58:41.059Z,60.73
2019-03-01T19:01:10.589Z,58.60
2019-03-01T19:03:36.623Z,54.90
2019-03-01T19:06:04.782Z,64.93
2019-03-01T19:08:31.715Z,50.27
2019-03-01T19:10:59.742Z,54.60
2019-03-01T19:13:26.933Z,79.27
2019-03-01T19:15:54.753Z,56.50
2019-03-01T19:18:21.622Z,61.23
2019-03-01T19:20:48.287Z,49.20
2019-03-01T19:23:15.002Z,59.87
2019-03-01T19:25:41.755Z,58.80
2019-03-01T19:28:08.559Z,67.47
2019-03-01T19:30:35.341Z,59.03
2019-03-01T19:33:03.259Z,52.30
2019-03-01T19:35:30.195Z,69.77
2019-03-01T19:37:56.976Z,61.63
2019-03-01T19:40:23.824Z,62.20
2019-03-01T19:42:50.762Z,66.33
2019-03-01T19:45:17.715Z,60.50
2019-03-01T19:47:44.456Z,74.90
2019-03-01T19:50:11.298Z,55.80
2019-03-01T19:52:38.129Z,57.40
2019-03-01T19:55:08.072Z,62.80
2019-03-01T19:57:33.568Z,65.70
2019-03-01T20:00:00.592Z,65.87
2019-03-01T20:02:27.875Z,66.77
2019-03-01T20:04:56.489Z,68.77
2019-03-01T20:07:23.400Z,75.67
2019-03-01T20:09:50.231Z,100.30
2019-03-01T20:12:18.314Z,93.33
2019-03-01T20:14:45.289Z,106.07
2019-03-01T20:17:12.097Z,71.87
2019-03-01T20:19:38.938Z,64.50
2019-03-01T20:22:05.653Z,86.53
2019-03-01T20:24:32.494Z,77.90
2019-03-01T20:26:59.973Z,58.03
2019-03-01T20:29:27.826Z,92.27
2019-03-01T20:31:54.563Z,95.37
2019-03-01T20:34:21.255Z,101.70
2019-03-01T20:36:49.649Z,74.90
2019-03-01T20:39:16.628Z,82.17
2019-03-01T20:41:46.344Z,64.83
2019-03-01T20:44:14.748Z,75.17
2019-03-01T20:46:43.907Z,60.33
2019-03-01T20:49:08.600Z,62.03
2019-03-01T20:51:35.340Z,67.97
2019-03-01T20:54:02.174Z,82.53
2019-03-01T20:56:28.918Z,76.50
2019-03-01T20:58:55.765Z,69.37
2019-03-01T21:01:22.606Z,80.63
2019-03-01T21:03:49.545Z,66.93
2019-03-01T21:06:16.297Z,79.40
2019-03-01T21:08:43.015Z,65.77
2019-03-01T21:11:10.298Z,75.57
2019-03-01T21:13:37.219Z,64.30
2019-03-01T21:16:03.955Z,71.17
2019-03-01T21:18:34.169Z,73.43
2019-03-01T21:20:59.637Z,70.87
2019-03-01T21:23:26.332Z,71.60
2019-03-01T21:25:53.272Z,61.97
2019-03-01T21:28:20.039Z,92.33
2019-03-01T21:30:46.854Z,60.57
2019-03-01T21:33:13.585Z,70.43
2019-03-01T21:35:40.322Z,62.53
2019-03-01T21:38:07.081Z,62.50
2019-03-01T21:40:34.582Z,61.67
2019-03-01T21:43:02.494Z,51.10
2019-03-01T21:45:29.227Z,58.13
2019-03-01T21:47:55.972Z,60.10
2019-03-01T21:50:22.712Z,60.13
2019-03-01T21:52:49.453Z,75.20
2019-03-01T21:55:16.232Z,68.30
2019-03-01T21:57:43.021Z,50.13
2019-03-01T22:00:09.981Z,95.83
2019-03-01T22:02:36.708Z,64.63
2019-03-01T22:05:03.569Z,58.07
2019-03-01T22:07:33.576Z,52.97
2019-03-01T22:09:59.581Z,62.70
2019-03-01T22:12:27.254Z,74.03
2019-03-01T22:14:53.989Z,60.43
2019-03-01T22:17:20.737Z,90.07
2019-03-01T22:19:47.570Z,63.60
2019-03-01T22:22:14.325Z,62.47
2019-03-01T22:24:41.076Z,58.80
2019-03-01T22:27:07.806Z,73.50
2019-03-01T22:29:34.493Z,88.27
2019-03-01T22:32:01.306Z,61.03
2019-03-01T22:34:31.111Z,57.47
2019-03-01T22:36:56.713Z,61.83
2019-03-01T22:39:23.544Z,56.17
2019-03-01T22:41:50.379Z,50.40
2019-03-01T22:44:17.222Z,73.07
2019-03-01T22:46:43.915Z,70.03
2019-03-01T22:49:10.599Z,63.70
2019-03-01T22:51:37.443Z,90.00
2019-03-01T22:54:04.285Z,76.80
2019-03-01T22:56:31.132Z,47.97
2019-03-01T22:58:57.968Z,71.07
2019-03-01T23:01:24.663Z,69.13
2019-03-01T23:03:54.494Z,53.27
2019-03-01T23:06:19.814Z,53.13
2019-03-01T23:08:46.569Z,70.30
2019-03-01T23:11:13.456Z,62.00
2019-03-01T23:13:40.149Z,65.53
2019-03-01T23:16:06.920Z,71.13
2019-03-01T23:18:33.784Z,61.00
2019-03-01T23:21:01.016Z,60.87
2019-03-01T23:23:28.743Z,60.53
2019-03-01T23:25:55.579Z,54.10
2019-03-01T23:28:22.318Z,67.30
2019-03-01T23:30:49.067Z,62.87
2019-03-01T23:33:15.908Z,61.13
2019-03-01T23:35:42.637Z,52.57
2019-03-01T23:38:11.545Z,55.80
2019-03-01T23:40:37.780Z,50.63
2019-03-01T23:43:04.687Z,60.47
2019-03-01T23:45:31.489Z,49.77
2019-03-01T23:47:58.275Z,62.00
2019-03-01T23:50:25.418Z,53.93
2019-03-01T23:52:54.848Z,59.10
2019-03-01T23:55:20.500Z,45.80
2019-03-01T23:57:47.294Z,55.37
